メインページ
METAR-TAF:

METAR-TAF

空港 :

ブカレスト, ルーマニア

アンリ・コアンダ国際空港

緯度: 44-33N, 経度: 026-06E, 海抜: 95m

現時点の気象観測

当レポートは21分前の11:30(UTC)に作成
東/南東の風 6kt、からの間で変化する
気温 23°C
湿度 27%
気圧 1016 hPa
視程10km以上
1,500メートル以下は雲なし、積乱雲なし

METAR: LROP 241130Z 12006KT 090V170 CAVOK 23/03 Q1016 NOSIG

時間: 14:51 (11:51 UTC)

予報

当レポートは51分前の11:00(UTC)に作成
予報は24日の 12時(UTC)から 25日の 12時(UTC)まで有効
東/南東の風 6kt
視程10km以上
1,500メートル以下は雲なし、積乱雲なし
25日の 09時(UTC)から 25日の 11時(UTC)まで徐々に
高度4000ftの雲は散在している, 積乱雲.

TAF: LROP 241100Z 2412/2512 11006KT CAVOK BECMG 2509/2511 SCT040CB

4,000以上の空港の気象観測と天気予報(METAR報とTAF報)

利用可能な観測所は地図上に黄色い丸と赤い丸で示す。

丸の上にカーソルを重ねると観測所名を参照できる。

次にクリックすると気象観測と天気予報を参照できる。

マップの切り替え:黒色「×」印の緑ボタンをクリックして拡大、「-」印の緑ボタンをクリックして縮小、緑色の三角印をクリックして隣りの地図に切り替え


METAR-TAF: